sensor_id;sensor_type;location;lat;lon;timestamp;pressure;altitude;pressure_sealevel;temperature;humidity
83183;BME280;73077;49.898;16.450;2023-12-20T00:00:14;96765.69;;;20.97;44.26
83183;BME280;73077;49.898;16.450;2023-12-20T00:02:41;96752.13;;;20.94;44.42
83183;BME280;73077;49.898;16.450;2023-12-20T00:05:10;96763.44;;;20.94;44.55
83183;BME280;73077;49.898;16.450;2023-12-20T00:07:36;96759.75;;;20.89;44.50
83183;BME280;73077;49.898;16.450;2023-12-20T00:10:01;96742.34;;;20.88;44.35
83183;BME280;73077;49.898;16.450;2023-12-20T00:12:27;96737.09;;;20.88;44.37
83183;BME280;73077;49.898;16.450;2023-12-20T00:14:53;96731.00;;;20.87;44.41
83183;BME280;73077;49.898;16.450;2023-12-20T00:17:18;96719.63;;;20.80;44.42
83183;BME280;73077;49.898;16.450;2023-12-20T00:19:44;96704.66;;;20.81;44.27
83183;BME280;73077;49.898;16.450;2023-12-20T00:22:11;96703.06;;;20.80;44.35
83183;BME280;73077;49.898;16.450;2023-12-20T00:24:37;96707.50;;;20.79;44.10
83183;BME280;73077;49.898;16.450;2023-12-20T00:27:02;96709.50;;;20.77;44.39
83183;BME280;73077;49.898;16.450;2023-12-20T00:29:28;96721.25;;;20.81;44.21
83183;BME280;73077;49.898;16.450;2023-12-20T00:31:55;96720.63;;;20.79;44.24
83183;BME280;73077;49.898;16.450;2023-12-20T00:34:20;96699.34;;;20.74;44.34
83183;BME280;73077;49.898;16.450;2023-12-20T00:36:46;96703.22;;;20.78;44.22
83183;BME280;73077;49.898;16.450;2023-12-20T00:39:12;96698.09;;;20.70;44.26
83183;BME280;73077;49.898;16.450;2023-12-20T00:41:38;96710.63;;;20.68;44.42
83183;BME280;73077;49.898;16.450;2023-12-20T00:44:05;96707.63;;;20.71;44.32
83183;BME280;73077;49.898;16.450;2023-12-20T00:46:30;96702.53;;;20.70;44.38
83183;BME280;73077;49.898;16.450;2023-12-20T00:48:56;96694.41;;;20.65;44.35
83183;BME280;73077;49.898;16.450;2023-12-20T00:51:22;96706.19;;;20.69;44.27
83183;BME280;73077;49.898;16.450;2023-12-20T00:53:49;96688.53;;;20.63;44.32
83183;BME280;73077;49.898;16.450;2023-12-20T00:56:15;96692.41;;;20.67;44.42
83183;BME280;73077;49.898;16.450;2023-12-20T00:58:41;96693.22;;;20.67;44.39
83183;BME280;73077;49.898;16.450;2023-12-20T01:01:06;96699.22;;;20.61;44.28
83183;BME280;73077;49.898;16.450;2023-12-20T01:03:32;96688.78;;;20.68;44.06
83183;BME280;73077;49.898;16.450;2023-12-20T01:05:58;96700.34;;;20.73;44.10
83183;BME280;73077;49.898;16.450;2023-12-20T01:08:23;96690.81;;;20.72;43.99
83183;BME280;73077;49.898;16.450;2023-12-20T01:10:49;96698.16;;;20.77;43.92
83183;BME280;73077;49.898;16.450;2023-12-20T01:13:15;96705.84;;;20.78;43.91
83183;BME280;73077;49.898;16.450;2023-12-20T01:15:41;96708.69;;;20.77;43.98
83183;BME280;73077;49.898;16.450;2023-12-20T01:18:07;96709.88;;;20.74;44.07
83183;BME280;73077;49.898;16.450;2023-12-20T01:20:32;96718.75;;;20.73;44.23
83183;BME280;73077;49.898;16.450;2023-12-20T01:22:58;96707.97;;;20.68;43.98
83183;BME280;73077;49.898;16.450;2023-12-20T01:25:24;96703.56;;;20.69;43.84
83183;BME280;73077;49.898;16.450;2023-12-20T01:27:50;96697.94;;;20.72;43.85
83183;BME280;73077;49.898;16.450;2023-12-20T01:30:15;96695.22;;;20.65;43.89
83183;BME280;73077;49.898;16.450;2023-12-20T01:32:41;96691.97;;;20.63;44.03
83183;BME280;73077;49.898;16.450;2023-12-20T01:35:07;96681.25;;;20.65;44.00
83183;BME280;73077;49.898;16.450;2023-12-20T01:37:33;96677.38;;;20.61;44.09
83183;BME280;73077;49.898;16.450;2023-12-20T01:40:00;96671.50;;;20.59;44.05
83183;BME280;73077;49.898;16.450;2023-12-20T01:42:26;96667.28;;;20.58;44.11
83183;BME280;73077;49.898;16.450;2023-12-20T01:44:51;96671.13;;;20.62;44.24
83183;BME280;73077;49.898;16.450;2023-12-20T01:47:17;96674.31;;;20.57;44.09
83183;BME280;73077;49.898;16.450;2023-12-20T01:49:43;96670.81;;;20.50;44.14
83183;BME280;73077;49.898;16.450;2023-12-20T01:52:09;96682.00;;;20.59;44.00
83183;BME280;73077;49.898;16.450;2023-12-20T01:54:35;96677.06;;;20.49;44.21
83183;BME280;73077;49.898;16.450;2023-12-20T01:57:01;96676.97;;;20.57;44.19
83183;BME280;73077;49.898;16.450;2023-12-20T01:59:28;96672.00;;;20.47;44.43
83183;BME280;73077;49.898;16.450;2023-12-20T02:01:54;96664.31;;;20.46;44.06
83183;BME280;73077;49.898;16.450;2023-12-20T02:04:20;96665.09;;;20.46;44.20
83183;BME280;73077;49.898;16.450;2023-12-20T02:06:46;96660.66;;;20.47;44.33
83183;BME280;73077;49.898;16.450;2023-12-20T02:09:12;96655.78;;;20.44;44.21
83183;BME280;73077;49.898;16.450;2023-12-20T02:11:38;96662.97;;;20.35;44.47
83183;BME280;73077;49.898;16.450;2023-12-20T02:14:04;96665.16;;;20.32;44.53
83183;BME280;73077;49.898;16.450;2023-12-20T02:16:30;96655.41;;;20.26;44.55
83183;BME280;73077;49.898;16.450;2023-12-20T02:18:56;96652.03;;;20.32;44.46
83183;BME280;73077;49.898;16.450;2023-12-20T02:21:25;96656.09;;;20.34;44.37
83183;BME280;73077;49.898;16.450;2023-12-20T02:23:51;96658.81;;;20.26;44.47
83183;BME280;73077;49.898;16.450;2023-12-20T02:26:17;96647.53;;;20.26;44.49
83183;BME280;73077;49.898;16.450;2023-12-20T02:28:44;96638.34;;;20.22;44.81
83183;BME280;73077;49.898;16.450;2023-12-20T02:31:09;96630.47;;;20.22;44.61
83183;BME280;73077;49.898;16.450;2023-12-20T02:33:35;96640.66;;;20.25;44.58
83183;BME280;73077;49.898;16.450;2023-12-20T02:36:01;96625.59;;;20.19;44.44
83183;BME280;73077;49.898;16.450;2023-12-20T02:38:28;96615.09;;;20.19;44.32
83183;BME280;73077;49.898;16.450;2023-12-20T02:40:53;96601.53;;;20.15;44.58
83183;BME280;73077;49.898;16.450;2023-12-20T02:43:19;96606.97;;;20.14;44.52
83183;BME280;73077;49.898;16.450;2023-12-20T02:45:45;96601.34;;;20.17;44.70
83183;BME280;73077;49.898;16.450;2023-12-20T02:48:12;96595.41;;;20.08;44.57
83183;BME280;73077;49.898;16.450;2023-12-20T02:50:37;96599.91;;;20.14;44.54
83183;BME280;73077;49.898;16.450;2023-12-20T02:53:04;96595.50;;;20.15;44.77
83183;BME280;73077;49.898;16.450;2023-12-20T02:55:29;96598.34;;;20.20;44.11
83183;BME280;73077;49.898;16.450;2023-12-20T02:57:55;96604.78;;;20.17;44.33
83183;BME280;73077;49.898;16.450;2023-12-20T03:00:21;96594.84;;;20.13;44.21
83183;BME280;73077;49.898;16.450;2023-12-20T03:02:46;96600.41;;;20.03;44.54
83183;BME280;73077;49.898;16.450;2023-12-20T03:05:12;96595.16;;;20.03;44.60
83183;BME280;73077;49.898;16.450;2023-12-20T03:07:38;96604.63;;;20.04;44.59
83183;BME280;73077;49.898;16.450;2023-12-20T03:10:04;96596.72;;;19.97;44.72
83183;BME280;73077;49.898;16.450;2023-12-20T03:12:31;96591.81;;;19.94;45.00
83183;BME280;73077;49.898;16.450;2023-12-20T03:14:57;96591.47;;;19.97;44.93
83183;BME280;73077;49.898;16.450;2023-12-20T03:17:22;96588.00;;;19.97;44.91
83183;BME280;73077;49.898;16.450;2023-12-20T03:19:48;96576.69;;;19.96;44.68
83183;BME280;73077;49.898;16.450;2023-12-20T03:22:14;96578.06;;;19.92;44.51
83183;BME280;73077;49.898;16.450;2023-12-20T03:24:39;96574.44;;;19.93;44.83
83183;BME280;73077;49.898;16.450;2023-12-20T03:27:05;96569.94;;;19.87;44.88
83183;BME280;73077;49.898;16.450;2023-12-20T03:29:31;96566.25;;;19.82;44.82
83183;BME280;73077;49.898;16.450;2023-12-20T03:31:56;96567.44;;;20.00;44.68
83183;BME280;73077;49.898;16.450;2023-12-20T03:34:23;96575.38;;;19.86;44.79
83183;BME280;73077;49.898;16.450;2023-12-20T03:36:50;96571.28;;;19.83;44.78
83183;BME280;73077;49.898;16.450;2023-12-20T03:39:16;96572.31;;;19.82;44.76
83183;BME280;73077;49.898;16.450;2023-12-20T03:41:42;96567.06;;;19.82;45.09
83183;BME280;73077;49.898;16.450;2023-12-20T03:44:07;96574.47;;;19.79;45.08
83183;BME280;73077;49.898;16.450;2023-12-20T03:46:33;96571.22;;;19.77;45.01
83183;BME280;73077;49.898;16.450;2023-12-20T03:48:59;96574.81;;;19.90;44.68
83183;BME280;73077;49.898;16.450;2023-12-20T03:51:24;96581.69;;;19.91;44.44
83183;BME280;73077;49.898;16.450;2023-12-20T03:53:50;96576.16;;;19.86;44.66
83183;BME280;73077;49.898;16.450;2023-12-20T03:56:15;96569.84;;;19.81;44.91
83183;BME280;73077;49.898;16.450;2023-12-20T03:58:41;96567.56;;;19.92;44.57
83183;BME280;73077;49.898;16.450;2023-12-20T04:01:10;96561.25;;;19.87;44.64
83183;BME280;73077;49.898;16.450;2023-12-20T04:03:39;96573.03;;;19.76;44.86
83183;BME280;73077;49.898;16.450;2023-12-20T04:06:05;96568.94;;;19.88;44.63
83183;BME280;73077;49.898;16.450;2023-12-20T04:08:31;96576.47;;;19.77;44.75
83183;BME280;73077;49.898;16.450;2023-12-20T04:10:57;96566.25;;;19.82;44.75
83183;BME280;73077;49.898;16.450;2023-12-20T04:13:24;96565.41;;;19.81;44.86
83183;BME280;73077;49.898;16.450;2023-12-20T04:15:50;96565.41;;;19.81;44.75
83183;BME280;73077;49.898;16.450;2023-12-20T04:18:17;96564.53;;;19.74;44.80
83183;BME280;73077;49.898;16.450;2023-12-20T04:20:43;96568.78;;;19.75;44.91
83183;BME280;73077;49.898;16.450;2023-12-20T04:23:08;96570.78;;;19.73;44.73
83183;BME280;73077;49.898;16.450;2023-12-20T04:25:34;96576.63;;;19.75;44.62
83183;BME280;73077;49.898;16.450;2023-12-20T04:28:00;96579.00;;;19.70;44.82
83183;BME280;73077;49.898;16.450;2023-12-20T04:30:28;96580.47;;;19.58;45.04
83183;BME280;73077;49.898;16.450;2023-12-20T04:32:54;96578.44;;;19.75;44.88
83183;BME280;73077;49.898;16.450;2023-12-20T04:35:20;96576.38;;;19.70;44.87
83183;BME280;73077;49.898;16.450;2023-12-20T04:37:46;96574.50;;;19.64;44.92
83183;BME280;73077;49.898;16.450;2023-12-20T04:40:16;96566.00;;;19.62;45.23
83183;BME280;73077;49.898;16.450;2023-12-20T04:42:41;96569.44;;;19.63;44.88
83183;BME280;73077;49.898;16.450;2023-12-20T04:45:07;96559.94;;;19.62;44.86
83183;BME280;73077;49.898;16.450;2023-12-20T04:47:33;96561.63;;;19.69;44.85
83183;BME280;73077;49.898;16.450;2023-12-20T04:49:59;96569.56;;;19.90;44.51
83183;BME280;73077;49.898;16.450;2023-12-20T04:52:25;96569.75;;;20.25;43.61
83183;BME280;73077;49.898;16.450;2023-12-20T04:54:50;96565.69;;;20.65;42.63
83183;BME280;73077;49.898;16.450;2023-12-20T04:57:16;96569.34;;;21.19;41.86
83183;BME280;73077;49.898;16.450;2023-12-20T04:59:42;96564.78;;;21.75;40.56
83183;BME280;73077;49.898;16.450;2023-12-20T05:02:08;96584.44;;;22.33;39.49
83183;BME280;73077;49.898;16.450;2023-12-20T05:04:33;96570.94;;;22.82;38.62
83183;BME280;73077;49.898;16.450;2023-12-20T05:06:59;96564.41;;;23.17;37.92
83183;BME280;73077;49.898;16.450;2023-12-20T05:09:25;96559.53;;;23.34;37.80
83183;BME280;73077;49.898;16.450;2023-12-20T05:11:50;96565.59;;;23.48;37.68
83183;BME280;73077;49.898;16.450;2023-12-20T05:14:16;96568.41;;;23.59;37.77
83183;BME280;73077;49.898;16.450;2023-12-20T05:16:42;96573.88;;;23.71;37.61
83183;BME280;73077;49.898;16.450;2023-12-20T05:19:07;96577.66;;;23.88;37.24
83183;BME280;73077;49.898;16.450;2023-12-20T05:21:34;96576.16;;;24.05;37.26
83183;BME280;73077;49.898;16.450;2023-12-20T05:24:02;96571.41;;;24.20;37.13
83183;BME280;73077;49.898;16.450;2023-12-20T05:26:28;96580.88;;;24.34;36.83
83183;BME280;73077;49.898;16.450;2023-12-20T05:28:55;96567.81;;;24.46;36.77
83183;BME280;73077;49.898;16.450;2023-12-20T05:31:20;96573.63;;;24.55;36.71
83183;BME280;73077;49.898;16.450;2023-12-20T05:33:46;96572.34;;;24.64;36.64
83183;BME280;73077;49.898;16.450;2023-12-20T05:36:11;96580.03;;;24.72;36.47
83183;BME280;73077;49.898;16.450;2023-12-20T05:38:39;96588.34;;;24.82;36.44
83183;BME280;73077;49.898;16.450;2023-12-20T05:41:06;96578.94;;;24.86;36.52
83183;BME280;73077;49.898;16.450;2023-12-20T05:43:31;96589.06;;;24.89;36.55
83183;BME280;73077;49.898;16.450;2023-12-20T05:45:59;96594.59;;;24.87;36.61
83183;BME280;73077;49.898;16.450;2023-12-20T05:48:25;96592.53;;;24.89;36.69
83183;BME280;73077;49.898;16.450;2023-12-20T05:50:50;96582.38;;;24.86;36.90
83183;BME280;73077;49.898;16.450;2023-12-20T05:53:16;96589.31;;;24.87;36.72
83183;BME280;73077;49.898;16.450;2023-12-20T05:55:42;96588.91;;;24.84;36.83
83183;BME280;73077;49.898;16.450;2023-12-20T05:58:09;96586.94;;;24.73;36.92
83183;BME280;73077;49.898;16.450;2023-12-20T06:00:35;96595.72;;;24.67;37.21
83183;BME280;73077;49.898;16.450;2023-12-20T06:03:01;96590.09;;;24.25;38.07
83183;BME280;73077;49.898;16.450;2023-12-20T06:05:27;96593.78;;;24.18;38.60
83183;BME280;73077;49.898;16.450;2023-12-20T06:07:53;96593.59;;;24.19;38.50
83183;BME280;73077;49.898;16.450;2023-12-20T06:10:19;96588.50;;;24.18;38.54
83183;BME280;73077;49.898;16.450;2023-12-20T06:12:45;96590.38;;;24.11;38.48
83183;BME280;73077;49.898;16.450;2023-12-20T06:15:14;96595.06;;;24.02;38.59
83183;BME280;73077;49.898;16.450;2023-12-20T06:17:39;96588.16;;;23.94;38.80
83183;BME280;73077;49.898;16.450;2023-12-20T06:20:07;96588.22;;;23.88;38.81
83183;BME280;73077;49.898;16.450;2023-12-20T06:22:34;96582.56;;;23.78;39.01
83183;BME280;73077;49.898;16.450;2023-12-20T06:25:04;96589.06;;;23.69;39.17
83183;BME280;73077;49.898;16.450;2023-12-20T06:27:30;96584.66;;;23.63;39.29
83183;BME280;73077;49.898;16.450;2023-12-20T06:29:58;96591.78;;;23.56;39.35
83183;BME280;73077;49.898;16.450;2023-12-20T06:32:24;96598.09;;;23.48;39.41
83183;BME280;73077;49.898;16.450;2023-12-20T06:34:51;96595.69;;;23.40;39.62
83183;BME280;73077;49.898;16.450;2023-12-20T06:37:17;96585.09;;;23.33;39.75
83183;BME280;73077;49.898;16.450;2023-12-20T06:39:43;96595.25;;;23.30;39.86
83183;BME280;73077;49.898;16.450;2023-12-20T06:42:10;96598.50;;;23.25;39.72
83183;BME280;73077;49.898;16.450;2023-12-20T06:44:35;96597.69;;;23.18;39.90
83183;BME280;73077;49.898;16.450;2023-12-20T06:47:02;96598.50;;;23.19;39.83
83183;BME280;73077;49.898;16.450;2023-12-20T06:49:28;96603.19;;;23.17;39.83
83183;BME280;73077;49.898;16.450;2023-12-20T06:51:53;96601.78;;;23.14;40.03
83183;BME280;73077;49.898;16.450;2023-12-20T06:54:20;96605.19;;;23.21;39.88
83183;BME280;73077;49.898;16.450;2023-12-20T06:56:46;96596.88;;;23.24;39.79
83183;BME280;73077;49.898;16.450;2023-12-20T06:59:12;96598.09;;;23.28;39.53
83183;BME280;73077;49.898;16.450;2023-12-20T07:01:37;96598.88;;;23.35;39.50
83183;BME280;73077;49.898;16.450;2023-12-20T07:04:03;96601.34;;;23.44;39.25
83183;BME280;73077;49.898;16.450;2023-12-20T07:06:29;96605.19;;;23.54;39.22
83183;BME280;73077;49.898;16.450;2023-12-20T07:08:56;96604.72;;;23.64;38.96
83183;BME280;73077;49.898;16.450;2023-12-20T07:11:21;96605.94;;;23.68;38.81
83183;BME280;73077;49.898;16.450;2023-12-20T07:13:47;96613.41;;;23.84;38.55
83183;BME280;73077;49.898;16.450;2023-12-20T07:16:13;96617.25;;;23.88;38.40
83183;BME280;73077;49.898;16.450;2023-12-20T07:18:38;96611.56;;;23.91;38.21
83183;BME280;73077;49.898;16.450;2023-12-20T07:21:04;96625.53;;;23.98;38.13
83183;BME280;73077;49.898;16.450;2023-12-20T07:23:30;96624.50;;;24.06;37.96
83183;BME280;73077;49.898;16.450;2023-12-20T07:25:55;96629.78;;;24.06;37.82
83183;BME280;73077;49.898;16.450;2023-12-20T07:28:21;96625.72;;;24.03;37.97
83183;BME280;73077;49.898;16.450;2023-12-20T07:30:46;96633.66;;;24.10;37.90
83183;BME280;73077;49.898;16.450;2023-12-20T07:33:12;96629.53;;;24.20;37.75
83183;BME280;73077;49.898;16.450;2023-12-20T07:35:38;96636.25;;;24.23;37.58
83183;BME280;73077;49.898;16.450;2023-12-20T07:38:04;96635.22;;;24.24;37.56
83183;BME280;73077;49.898;16.450;2023-12-20T07:40:29;96642.13;;;24.25;37.60
83183;BME280;73077;49.898;16.450;2023-12-20T07:42:56;96648.19;;;24.32;37.55
83183;BME280;73077;49.898;16.450;2023-12-20T07:45:23;96650.19;;;24.36;37.46
83183;BME280;73077;49.898;16.450;2023-12-20T07:47:50;96649.81;;;24.33;37.62
83183;BME280;73077;49.898;16.450;2023-12-20T07:50:16;96652.44;;;24.33;37.62
83183;BME280;73077;49.898;16.450;2023-12-20T07:52:43;96653.84;;;24.35;37.55
83183;BME280;73077;49.898;16.450;2023-12-20T07:55:08;96657.91;;;24.38;37.58
83183;BME280;73077;49.898;16.450;2023-12-20T07:57:34;96664.00;;;24.38;37.56
83183;BME280;73077;49.898;16.450;2023-12-20T08:00:00;96659.97;;;24.36;37.62
83183;BME280;73077;49.898;16.450;2023-12-20T08:02:26;96656.09;;;24.32;37.86
83183;BME280;73077;49.898;16.450;2023-12-20T08:04:51;96653.69;;;24.30;37.79
83183;BME280;73077;49.898;16.450;2023-12-20T08:07:17;96655.31;;;24.31;37.85
83183;BME280;73077;49.898;16.450;2023-12-20T08:09:43;96666.47;;;24.33;37.73
83183;BME280;73077;49.898;16.450;2023-12-20T08:12:09;96664.06;;;24.25;37.81
83183;BME280;73077;49.898;16.450;2023-12-20T08:14:36;96654.53;;;24.18;37.95
83183;BME280;73077;49.898;16.450;2023-12-20T08:17:01;96654.16;;;24.14;38.00
83183;BME280;73077;49.898;16.450;2023-12-20T08:19:27;96659.06;;;24.11;38.08
83183;BME280;73077;49.898;16.450;2023-12-20T08:21:53;96653.97;;;24.03;38.36
83183;BME280;73077;49.898;16.450;2023-12-20T08:24:20;96664.16;;;23.92;38.50
83183;BME280;73077;49.898;16.450;2023-12-20T08:26:46;96659.28;;;23.83;38.64
83183;BME280;73077;49.898;16.450;2023-12-20T08:29:15;96667.44;;;23.75;38.76
83183;BME280;73077;49.898;16.450;2023-12-20T08:31:41;96662.38;;;23.67;38.84
83183;BME280;73077;49.898;16.450;2023-12-20T08:34:07;96667.88;;;23.59;39.11
83183;BME280;73077;49.898;16.450;2023-12-20T08:36:33;96677.63;;;23.58;39.02
83183;BME280;73077;49.898;16.450;2023-12-20T08:38:59;96672.56;;;23.57;39.07
83183;BME280;73077;49.898;16.450;2023-12-20T08:41:26;96666.66;;;23.55;39.14
83183;BME280;73077;49.898;16.450;2023-12-20T08:43:52;96671.56;;;23.51;39.21
83183;BME280;73077;49.898;16.450;2023-12-20T08:46:17;96677.44;;;23.53;39.04
83183;BME280;73077;49.898;16.450;2023-12-20T08:48:45;96676.03;;;23.57;38.99
83183;BME280;73077;49.898;16.450;2023-12-20T08:51:10;96671.16;;;23.54;38.98
83183;BME280;73077;49.898;16.450;2023-12-20T08:53:36;96665.44;;;23.64;38.86
83183;BME280;73077;49.898;16.450;2023-12-20T08:56:02;96671.53;;;23.64;38.87
83183;BME280;73077;49.898;16.450;2023-12-20T08:58:28;96676.63;;;23.66;38.66
83183;BME280;73077;49.898;16.450;2023-12-20T09:00:54;96676.41;;;23.74;38.61
83183;BME280;73077;49.898;16.450;2023-12-20T09:03:20;96684.91;;;23.76;38.62
83183;BME280;73077;49.898;16.450;2023-12-20T09:05:45;96686.53;;;23.77;38.47
83183;BME280;73077;49.898;16.450;2023-12-20T09:08:11;96686.72;;;23.88;38.30
83183;BME280;73077;49.898;16.450;2023-12-20T09:10:37;96688.50;;;23.94;38.18
83183;BME280;73077;49.898;16.450;2023-12-20T09:13:03;96689.31;;;23.95;38.23
83183;BME280;73077;49.898;16.450;2023-12-20T09:15:29;96692.97;;;24.01;38.16
83183;BME280;73077;49.898;16.450;2023-12-20T09:17:55;96687.31;;;23.97;38.00
83183;BME280;73077;49.898;16.450;2023-12-20T09:20:21;96685.50;;;23.91;38.21
83183;BME280;73077;49.898;16.450;2023-12-20T09:22:49;96694.84;;;23.93;38.32
83183;BME280;73077;49.898;16.450;2023-12-20T09:25:14;96681.03;;;23.85;38.41
83183;BME280;73077;49.898;16.450;2023-12-20T09:27:41;96688.56;;;23.75;38.62
83183;BME280;73077;49.898;16.450;2023-12-20T09:30:09;96693.47;;;23.71;38.33
83183;BME280;73077;49.898;16.450;2023-12-20T09:32:35;96690.41;;;23.61;38.74
83183;BME280;73077;49.898;16.450;2023-12-20T09:35:02;96683.13;;;23.57;38.77
83183;BME280;73077;49.898;16.450;2023-12-20T09:37:28;96678.66;;;23.51;38.90
83183;BME280;73077;49.898;16.450;2023-12-20T09:39:55;96676.22;;;23.49;38.99
83183;BME280;73077;49.898;16.450;2023-12-20T09:42:25;96691.25;;;23.49;39.13
83183;BME280;73077;49.898;16.450;2023-12-20T09:44:55;96685.53;;;23.52;39.05
83183;BME280;73077;49.898;16.450;2023-12-20T09:47:23;96688.41;;;23.57;38.89
83183;BME280;73077;49.898;16.450;2023-12-20T09:49:50;96693.47;;;23.65;38.67
83183;BME280;73077;49.898;16.450;2023-12-20T09:52:18;96690.78;;;23.78;38.51
83183;BME280;73077;49.898;16.450;2023-12-20T09:54:44;96691.59;;;23.85;38.29
83183;BME280;73077;49.898;16.450;2023-12-20T09:57:10;96680.81;;;23.93;38.20
83183;BME280;73077;49.898;16.450;2023-12-20T09:59:36;96686.88;;;24.00;37.96
83183;BME280;73077;49.898;16.450;2023-12-20T10:02:04;96672.25;;;24.04;37.97
83183;BME280;73077;49.898;16.450;2023-12-20T10:04:34;96673.28;;;24.10;37.82
83183;BME280;73077;49.898;16.450;2023-12-20T10:07:02;96673.25;;;24.16;37.59
83183;BME280;73077;49.898;16.450;2023-12-20T10:09:31;96670.38;;;24.24;37.55
83183;BME280;73077;49.898;16.450;2023-12-20T10:11:58;96668.38;;;24.20;37.72
83183;BME280;73077;49.898;16.450;2023-12-20T10:14:24;96663.09;;;24.13;37.83
83183;BME280;73077;49.898;16.450;2023-12-20T10:16:50;96665.72;;;24.07;37.96
83183;BME280;73077;49.898;16.450;2023-12-20T10:19:17;96675.09;;;24.03;38.07
83183;BME280;73077;49.898;16.450;2023-12-20T10:21:43;96669.03;;;23.96;38.21
83183;BME280;73077;49.898;16.450;2023-12-20T10:24:17;96662.09;;;23.94;38.29
83183;BME280;73077;49.898;16.450;2023-12-20T10:26:42;96651.38;;;23.89;38.34
83183;BME280;73077;49.898;16.450;2023-12-20T10:29:08;96656.88;;;23.88;38.40
83183;BME280;73077;49.898;16.450;2023-12-20T10:31:36;96653.63;;;23.79;38.51
83183;BME280;73077;49.898;16.450;2023-12-20T10:34:04;96657.28;;;23.72;38.62
83183;BME280;73077;49.898;16.450;2023-12-20T10:36:32;96654.28;;;23.68;38.75
83183;BME280;73077;49.898;16.450;2023-12-20T10:38:59;96661.78;;;23.65;38.72
83183;BME280;73077;49.898;16.450;2023-12-20T10:41:30;96666.88;;;23.60;38.88
83183;BME280;73077;49.898;16.450;2023-12-20T10:44:02;96659.16;;;23.58;38.78
83183;BME280;73077;49.898;16.450;2023-12-20T10:46:29;96648.00;;;23.63;38.82
83183;BME280;73077;49.898;16.450;2023-12-20T10:48:56;96634.59;;;23.64;38.67
83183;BME280;73077;49.898;16.450;2023-12-20T10:51:24;96643.91;;;23.67;38.72
83183;BME280;73077;49.898;16.450;2023-12-20T10:53:52;96634.97;;;23.74;38.57
83183;BME280;73077;49.898;16.450;2023-12-20T10:56:19;96623.97;;;23.77;38.40
83183;BME280;73077;49.898;16.450;2023-12-20T10:58:49;96624.38;;;23.87;38.42
83183;BME280;73077;49.898;16.450;2023-12-20T11:01:17;96630.25;;;23.89;38.27
83183;BME280;73077;49.898;16.450;2023-12-20T11:03:49;96624.72;;;23.98;38.14
83183;BME280;73077;49.898;16.450;2023-12-20T11:09:29;96608.84;;;24.04;38.05
83183;BME280;73077;49.898;16.450;2023-12-20T11:17:10;96607.03;;;24.05;37.86
83183;BME280;73077;49.898;16.450;2023-12-20T11:22:30;96622.72;;;23.93;38.23
83183;BME280;73077;49.898;16.450;2023-12-20T11:25:09;96625.78;;;23.90;38.43
83183;BME280;73077;49.898;16.450;2023-12-20T11:27:37;96628.44;;;23.83;38.32
83183;BME280;73077;49.898;16.450;2023-12-20T11:30:05;96626.44;;;23.79;38.41
83183;BME280;73077;49.898;16.450;2023-12-20T11:32:34;96629.50;;;23.69;38.69
83183;BME280;73077;49.898;16.450;2023-12-20T11:37:36;96641.50;;;23.59;38.76
83183;BME280;73077;49.898;16.450;2023-12-20T11:40:11;96639.09;;;23.51;38.89
83183;BME280;73077;49.898;16.450;2023-12-20T11:42:40;96629.75;;;23.48;38.95
83183;BME280;73077;49.898;16.450;2023-12-20T11:45:14;96625.69;;;23.46;38.93
83183;BME280;73077;49.898;16.450;2023-12-20T11:47:46;96620.38;;;23.52;38.90
83183;BME280;73077;49.898;16.450;2023-12-20T11:50:12;96616.53;;;23.61;38.76
83183;BME280;73077;49.898;16.450;2023-12-20T11:52:38;96607.78;;;23.67;38.60
83183;BME280;73077;49.898;16.450;2023-12-20T11:55:04;96614.66;;;23.75;38.50
83183;BME280;73077;49.898;16.450;2023-12-20T11:57:30;96615.44;;;23.82;38.29
83183;BME280;73077;49.898;16.450;2023-12-20T11:59:56;96616.84;;;23.91;38.21
83183;BME280;73077;49.898;16.450;2023-12-20T12:02:23;96619.84;;;23.94;38.09
83183;BME280;73077;49.898;16.450;2023-12-20T12:04:50;96611.50;;;24.04;37.99
83183;BME280;73077;49.898;16.450;2023-12-20T12:07:18;96609.25;;;24.08;37.95
83183;BME280;73077;49.898;16.450;2023-12-20T12:09:45;96612.09;;;24.13;37.72
83183;BME280;73077;49.898;16.450;2023-12-20T12:12:12;96614.56;;;24.14;37.76
83183;BME280;73077;49.898;16.450;2023-12-20T12:14:38;96600.72;;;24.12;37.83
83183;BME280;73077;49.898;16.450;2023-12-20T12:17:12;96597.88;;;24.07;38.02
83183;BME280;73077;49.898;16.450;2023-12-20T12:19:41;96601.16;;;24.03;38.31
83183;BME280;73077;49.898;16.450;2023-12-20T12:22:11;96594.88;;;23.97;38.10
83183;BME280;73077;49.898;16.450;2023-12-20T12:24:42;96592.03;;;23.92;38.29
83183;BME280;73077;49.898;16.450;2023-12-20T12:27:08;96589.41;;;23.92;38.21
83183;BME280;73077;49.898;16.450;2023-12-20T12:29:36;96590.22;;;23.86;38.43
83183;BME280;73077;49.898;16.450;2023-12-20T12:32:06;96591.47;;;23.83;38.28
83183;BME280;73077;49.898;16.450;2023-12-20T12:34:35;96586.66;;;23.74;38.55
83183;BME280;73077;49.898;16.450;2023-12-20T12:37:03;96585.03;;;23.66;38.70
83183;BME280;73077;49.898;16.450;2023-12-20T12:39:29;96592.34;;;23.64;38.79
83183;BME280;73077;49.898;16.450;2023-12-20T12:41:56;96580.38;;;23.62;38.76
83183;BME280;73077;49.898;16.450;2023-12-20T12:44:22;96588.13;;;23.57;38.84
83183;BME280;73077;49.898;16.450;2023-12-20T12:46:51;96579.78;;;23.60;38.86
83183;BME280;73077;49.898;16.450;2023-12-20T12:49:19;96583.03;;;23.62;38.85
83183;BME280;73077;49.898;16.450;2023-12-20T12:51:47;96575.28;;;23.67;38.72
83183;BME280;73077;49.898;16.450;2023-12-20T12:54:12;96578.09;;;23.72;38.59
83183;BME280;73077;49.898;16.450;2023-12-20T12:56:39;96576.28;;;23.72;38.57
83183;BME280;73077;49.898;16.450;2023-12-20T12:59:05;96574.06;;;23.69;38.62